createdAt,value
2022-08-07T00:02:36.400Z,17.58
2022-08-07T00:05:04.277Z,20.67
2022-08-07T00:07:40.083Z,17.08
2022-08-07T00:10:25.663Z,16.23
2022-08-07T00:12:59.909Z,16.88
2022-08-07T00:15:37.925Z,15.77
2022-08-07T00:18:18.705Z,16.38
2022-08-07T00:20:49.256Z,16.10
2022-08-07T00:23:17.517Z,16.10
2022-08-07T00:25:58.126Z,14.85
2022-08-07T00:28:31.805Z,17.65
2022-08-07T00:31:04.553Z,16.77
2022-08-07T00:33:35.580Z,15.55
2022-08-07T00:36:04.950Z,13.05
2022-08-07T00:38:34.098Z,15.13
2022-08-07T00:41:04.291Z,13.20
2022-08-07T00:44:00.471Z,16.80
2022-08-07T00:46:26.175Z,12.45
2022-08-07T00:48:54.125Z,13.15
2022-08-07T00:51:22.532Z,12.13
2022-08-07T00:53:56.530Z,13.70
2022-08-07T00:56:30.212Z,12.23
2022-08-07T00:59:02.904Z,13.98
2022-08-07T01:01:41.539Z,12.25
2022-08-07T01:04:24.526Z,12.02
2022-08-07T01:06:53.810Z,11.95
2022-08-07T01:10:04.921Z,10.70
2022-08-07T01:12:29.618Z,11.45
2022-08-07T01:15:01.481Z,13.30
2022-08-07T01:17:32.352Z,11.32
2022-08-07T01:20:08.055Z,11.57
2022-08-07T01:22:46.511Z,7.85
2022-08-07T01:25:54.695Z,8.60
2022-08-07T01:28:05.351Z,8.82
2022-08-07T01:30:34.034Z,9.18
2022-08-07T01:33:02.395Z,10.60
2022-08-07T01:35:52.916Z,8.63
2022-08-07T01:38:25.022Z,7.80
2022-08-07T01:40:58.200Z,10.50
2022-08-07T01:43:27.162Z,9.00
2022-08-07T01:46:04.417Z,8.23
2022-08-07T01:48:34.089Z,9.48
2022-08-07T01:51:24.474Z,11.43
2022-08-07T01:54:08.758Z,6.97
2022-08-07T01:56:49.277Z,7.93
2022-08-07T01:59:23.798Z,7.20
2022-08-07T02:02:06.215Z,6.88
2022-08-07T02:04:55.821Z,6.13
2022-08-07T02:07:35.757Z,7.60
2022-08-07T02:10:09.130Z,7.93
2022-08-07T02:12:50.056Z,7.28
2022-08-07T02:15:25.469Z,6.22
2022-08-07T02:17:57.738Z,8.50
2022-08-07T02:20:31.196Z,6.05
2022-08-07T02:23:04.597Z,5.93
2022-08-07T02:26:26.742Z,6.32
2022-08-07T02:28:29.809Z,6.75
2022-08-07T02:31:18.720Z,5.90
2022-08-07T02:34:01.737Z,6.35
2022-08-07T02:36:34.806Z,5.68
2022-08-07T02:39:42.939Z,6.97
2022-08-07T02:42:10.106Z,6.45
2022-08-07T02:44:47.858Z,5.95
2022-08-07T02:47:19.709Z,5.88
2022-08-07T02:50:14.558Z,5.82
2022-08-07T02:52:48.626Z,5.90
2022-08-07T02:55:28.491Z,6.72
2022-08-07T02:58:16.405Z,4.47
2022-08-07T03:00:52.930Z,6.13
2022-08-07T03:03:23.413Z,4.57
2022-08-07T03:05:55.755Z,5.28
2022-08-07T03:08:26.717Z,6.07
2022-08-07T03:13:39.048Z,4.30
2022-08-07T03:16:18.295Z,4.63
2022-08-07T03:18:53.142Z,7.03
2022-08-07T03:21:24.431Z,4.82
2022-08-07T03:24:18.317Z,4.90
2022-08-07T03:26:51.348Z,4.65
2022-08-07T03:29:33.758Z,5.30
2022-08-07T03:32:13.130Z,5.82
2022-08-07T03:34:47.508Z,5.65
2022-08-07T03:37:37.236Z,5.55
2022-08-07T03:40:14.986Z,4.60
2022-08-07T03:42:44.996Z,6.95
2022-08-07T03:45:29.391Z,5.25
2022-08-07T03:48:04.217Z,4.72
2022-08-07T03:50:38.776Z,5.97
2022-08-07T03:53:07.433Z,5.57
2022-08-07T03:55:53.139Z,5.38
2022-08-07T03:59:05.321Z,5.82
2022-08-07T04:01:19.240Z,4.72
2022-08-07T04:03:55.252Z,6.35
2022-08-07T04:06:37.281Z,4.90
2022-08-07T04:09:15.650Z,8.25
2022-08-07T04:12:23.628Z,8.02
2022-08-07T04:14:38.683Z,7.72
2022-08-07T04:17:20.962Z,6.38
2022-08-07T04:19:54.118Z,8.05
2022-08-07T04:22:29.318Z,7.80
2022-08-07T04:25:01.931Z,8.23
2022-08-07T04:27:35.694Z,8.40
2022-08-07T04:30:21.518Z,7.68
2022-08-07T04:35:38.274Z,9.48
2022-08-07T04:38:13.348Z,8.27
2022-08-07T04:40:51.898Z,8.57
2022-08-07T04:44:09.922Z,8.65
2022-08-07T04:46:29.329Z,8.73
2022-08-07T04:49:17.700Z,9.30
2022-08-07T04:51:56.926Z,11.45
2022-08-07T04:54:32.669Z,6.30
2022-08-07T04:58:14.296Z,8.48
2022-08-07T05:02:54.739Z,6.25
2022-08-07T05:05:53.889Z,6.55
2022-08-07T05:08:59.850Z,5.95
2022-08-07T05:11:26.284Z,6.00
2022-08-07T05:14:52.714Z,7.75
2022-08-07T05:16:52.599Z,5.70
2022-08-07T05:19:25.678Z,4.82
2022-08-07T05:22:05.663Z,4.75
2022-08-07T05:24:40.868Z,6.03
2022-08-07T05:27:14.464Z,4.80
2022-08-07T05:30:03.105Z,5.93
2022-08-07T05:32:33.160Z,4.30
2022-08-07T05:35:03.708Z,3.78
2022-08-07T05:37:40.865Z,4.90
2022-08-07T05:40:19.107Z,4.03
2022-08-07T05:42:56.092Z,4.10
2022-08-07T05:45:47.750Z,4.82
2022-08-07T05:48:16.621Z,4.30
2022-08-07T05:50:47.496Z,4.05
2022-08-07T05:54:11.925Z,3.08
2022-08-07T05:56:12.516Z,4.57
2022-08-07T05:58:52.399Z,3.67
2022-08-07T06:01:27.169Z,4.20
2022-08-07T06:04:05.480Z,3.70
2022-08-07T06:06:38.497Z,4.85
2022-08-07T06:09:18.590Z,3.17
2022-08-07T06:11:49.726Z,3.78
2022-08-07T06:14:28.502Z,4.55
2022-08-07T06:23:04.101Z,4.78
2022-08-07T06:25:54.712Z,4.28
2022-08-07T06:28:28.310Z,3.35
2022-08-07T06:30:58.692Z,3.97
2022-08-07T06:33:29.536Z,2.60
2022-08-07T06:36:12.236Z,4.68
2022-08-07T06:40:18.265Z,3.47
2022-08-07T06:42:01.226Z,3.17
2022-08-07T06:44:52.956Z,2.90
2022-08-07T06:47:22.766Z,4.50
2022-08-07T06:49:58.703Z,2.70
2022-08-07T06:52:37.006Z,5.75
2022-08-07T06:55:33.521Z,3.15
2022-08-07T06:58:10.574Z,2.60
2022-08-07T07:00:53.141Z,2.60
2022-08-07T07:03:26.530Z,2.40
2022-08-07T07:06:11.091Z,2.38
2022-08-07T07:08:39.656Z,2.60
2022-08-07T07:12:06.734Z,3.22
2022-08-07T07:14:04.956Z,3.22
2022-08-07T07:16:49.418Z,2.67
2022-08-07T07:19:57.408Z,2.70
2022-08-07T07:22:36.364Z,3.35
2022-08-07T07:25:13.898Z,2.33
2022-08-07T07:27:58.466Z,2.55
2022-08-07T07:30:38.363Z,2.03
2022-08-07T07:33:11.540Z,2.83
2022-08-07T07:35:50.657Z,2.10
2022-08-07T07:38:31.571Z,4.65
2022-08-07T07:41:03.593Z,3.28
2022-08-07T07:44:13.947Z,5.80
2022-08-07T07:46:37.999Z,3.13
2022-08-07T07:50:33.755Z,2.28
2022-08-07T07:52:05.766Z,2.22
2022-08-07T07:54:35.863Z,3.25
2022-08-07T07:57:04.369Z,1.85
2022-08-07T07:59:52.828Z,2.58
2022-08-07T08:02:35.325Z,3.53
2022-08-07T08:05:14.231Z,2.50
2022-08-07T08:08:00.043Z,2.40
2022-08-07T08:10:37.680Z,4.32
2022-08-07T08:13:10.502Z,1.80
2022-08-07T08:15:58.734Z,2.22
2022-08-07T08:18:30.976Z,2.20
2022-08-07T08:21:02.637Z,1.88
2022-08-07T08:23:51.616Z,2.45
2022-08-07T08:26:38.633Z,2.70
2022-08-07T08:29:08.396Z,3.25
2022-08-07T08:31:58.735Z,2.03
2022-08-07T08:34:37.326Z,2.03
2022-08-07T08:37:09.884Z,2.30
2022-08-07T08:39:58.466Z,2.97
2022-08-07T08:42:31.740Z,2.77
2022-08-07T08:45:13.346Z,2.40
2022-08-07T08:47:52.099Z,1.70
2022-08-07T08:50:35.242Z,2.05
2022-08-07T08:53:16.563Z,3.03
2022-08-07T08:55:55.143Z,3.58
2022-08-07T08:58:34.978Z,1.88
2022-08-07T09:01:19.224Z,1.77
2022-08-07T09:03:57.114Z,2.38
2022-08-07T09:06:38.403Z,2.17
2022-08-07T09:09:33.035Z,2.78
2022-08-07T09:12:30.681Z,2.15
2022-08-07T09:16:20.631Z,4.05
2022-08-07T09:18:34.986Z,4.35
2022-08-07T09:21:13.732Z,2.00
2022-08-07T09:24:32.814Z,1.85
2022-08-07T09:27:11.913Z,2.08
2022-08-07T09:30:03.470Z,1.55
2022-08-07T09:36:03.131Z,1.70
2022-08-07T09:38:25.534Z,1.77
2022-08-07T09:41:05.847Z,2.65
2022-08-07T09:44:06.394Z,5.85
2022-08-07T09:47:51.090Z,2.72
2022-08-07T09:50:02.397Z,3.00
2022-08-07T09:52:48.619Z,2.40
2022-08-07T09:56:02.348Z,1.88
2022-08-07T09:58:52.120Z,2.05
2022-08-07T10:01:52.026Z,2.05
2022-08-07T10:04:54.943Z,2.47
2022-08-07T10:07:52.846Z,2.45
2022-08-07T10:11:00.283Z,4.57
2022-08-07T10:14:01.003Z,2.08
2022-08-07T10:16:51.851Z,3.72
2022-08-07T10:19:37.780Z,3.33
2022-08-07T10:22:43.265Z,2.08
2022-08-07T10:25:42.314Z,1.70
2022-08-07T10:28:49.436Z,1.85
2022-08-07T10:31:39.364Z,2.15
2022-08-07T10:34:27.225Z,2.65
2022-08-07T10:37:12.623Z,2.30
2022-08-07T10:40:03.228Z,3.55
2022-08-07T10:42:39.447Z,2.17
2022-08-07T10:45:44.551Z,1.70
2022-08-07T10:48:18.911Z,2.00
2022-08-07T10:50:51.463Z,4.70
2022-08-07T10:53:28.558Z,2.20
2022-08-07T10:56:31.256Z,2.40
2022-08-07T10:59:10.953Z,2.00
2022-08-07T11:01:52.016Z,2.53
2022-08-07T11:04:50.397Z,2.33
2022-08-07T11:08:00.285Z,1.85
2022-08-07T11:10:20.627Z,3.03
2022-08-07T11:13:02.034Z,1.88
2022-08-07T11:15:36.835Z,1.75
2022-08-07T11:18:15.483Z,3.15
2022-08-07T11:20:53.356Z,1.85
2022-08-07T11:23:30.623Z,2.42
2022-08-07T11:28:53.568Z,2.17
2022-08-07T11:31:30.455Z,2.75
2022-08-07T11:34:12.112Z,3.13
2022-08-07T11:36:56.656Z,2.20
2022-08-07T11:40:00.473Z,2.53
2022-08-07T11:42:40.340Z,2.28
2022-08-07T11:45:20.321Z,3.72
2022-08-07T11:48:30.037Z,4.75
2022-08-07T11:51:41.938Z,2.28
2022-08-07T11:54:22.143Z,2.45
2022-08-07T11:57:04.454Z,2.45
2022-08-07T12:00:11.912Z,2.20
2022-08-07T12:02:52.667Z,2.77
2022-08-07T12:05:47.253Z,3.53
2022-08-07T12:08:26.110Z,2.55
2022-08-07T12:11:21.201Z,2.30
2022-08-07T12:13:54.900Z,2.97
2022-08-07T12:16:30.624Z,2.25
2022-08-07T12:19:14.772Z,2.60
2022-08-07T12:22:37.156Z,1.73
2022-08-07T12:26:00.859Z,2.80
2022-08-07T12:28:09.546Z,2.65
2022-08-07T12:30:46.945Z,1.75
2022-08-07T12:33:28.406Z,2.42
2022-08-07T12:36:02.238Z,2.47
2022-08-07T12:38:42.496Z,3.13
2022-08-07T12:41:12.627Z,2.47
2022-08-07T12:44:01.360Z,2.15
2022-08-07T12:46:46.086Z,2.67
2022-08-07T12:49:39.510Z,4.05
2022-08-07T12:52:17.931Z,2.50
2022-08-07T12:54:57.325Z,2.30
2022-08-07T12:57:38.917Z,2.80
2022-08-07T13:00:32.639Z,3.47
2022-08-07T13:03:56.104Z,3.47
2022-08-07T13:06:27.665Z,2.42
2022-08-07T13:09:02.621Z,2.20
2022-08-07T13:12:02.810Z,5.93
2022-08-07T13:14:50.910Z,2.40
2022-08-07T13:17:40.846Z,2.67
2022-08-07T13:20:17.755Z,2.88
2022-08-07T13:22:53.617Z,2.25
2022-08-07T13:25:39.214Z,2.58
2022-08-07T13:28:18.763Z,3.60
2022-08-07T13:31:01.705Z,3.13
2022-08-07T13:34:30.565Z,2.20
2022-08-07T13:36:40.488Z,5.10
2022-08-07T13:39:28.625Z,1.90
2022-08-07T13:42:07.395Z,3.90
2022-08-07T13:44:39.369Z,2.80
2022-08-07T13:50:33.289Z,3.47
2022-08-07T13:52:43.029Z,2.30
2022-08-07T13:55:19.532Z,1.95
2022-08-07T13:58:28.044Z,1.73
2022-08-07T14:01:07.990Z,2.35
2022-08-07T14:04:07.329Z,1.63
2022-08-07T14:06:36.170Z,1.95
2022-08-07T14:09:05.765Z,4.85
2022-08-07T14:11:53.620Z,2.22
2022-08-07T14:14:32.876Z,3.13
2022-08-07T14:17:32.251Z,2.97
2022-08-07T14:20:40.965Z,3.05
2022-08-07T14:22:52.332Z,2.20
2022-08-07T14:25:29.378Z,2.45
2022-08-07T14:30:59.510Z,1.98
2022-08-07T14:33:45.050Z,2.33
2022-08-07T14:36:15.047Z,3.35
2022-08-07T14:42:22.488Z,2.10
2022-08-07T14:44:30.604Z,3.40
2022-08-07T14:49:58.538Z,1.85
2022-08-07T14:52:28.873Z,2.28
2022-08-07T14:55:00.265Z,2.85
2022-08-07T14:57:58.780Z,2.92
2022-08-07T15:00:30.345Z,2.20
2022-08-07T15:02:59.920Z,3.38
2022-08-07T15:05:30.166Z,2.95
2022-08-07T15:07:59.910Z,3.38
2022-08-07T15:10:30.346Z,2.35
2022-08-07T15:13:11.460Z,3.92
2022-08-07T15:15:43.614Z,2.80
2022-08-07T15:18:28.558Z,2.47
2022-08-07T15:21:08.206Z,3.35
2022-08-07T15:25:13.218Z,2.78
2022-08-07T15:26:38.166Z,2.53
2022-08-07T15:30:08.531Z,4.10
2022-08-07T15:34:57.037Z,4.97
2022-08-07T15:37:28.338Z,4.07
2022-08-07T15:40:00.263Z,6.10
2022-08-07T15:42:53.806Z,2.97
2022-08-07T15:45:58.296Z,4.47
2022-08-07T15:48:30.140Z,3.13
2022-08-07T15:51:08.504Z,3.47
2022-08-07T15:53:51.771Z,4.15
2022-08-07T15:56:24.140Z,5.20
2022-08-07T15:58:57.879Z,4.97
2022-08-07T16:01:38.438Z,4.22
2022-08-07T16:04:14.572Z,3.53
2022-08-07T16:06:46.265Z,5.35
2022-08-07T16:09:23.216Z,3.70
2022-08-07T16:12:12.038Z,4.35
2022-08-07T16:15:55.271Z,3.15
2022-08-07T16:18:14.341Z,8.30
2022-08-07T16:22:03.226Z,6.35
2022-08-07T16:24:02.057Z,3.75
2022-08-07T16:26:59.612Z,4.43
2022-08-07T16:30:10.583Z,4.47
2022-08-07T16:32:54.289Z,4.82
2022-08-07T16:35:52.365Z,4.13
2022-08-07T16:38:57.487Z,4.70
2022-08-07T16:48:07.112Z,3.88
2022-08-07T16:51:13.397Z,8.00
2022-08-07T16:54:09.076Z,4.28
2022-08-07T16:56:53.323Z,4.32
2022-08-07T16:59:46.927Z,3.60
2022-08-07T17:03:05.882Z,3.72
2022-08-07T17:06:19.850Z,5.55
2022-08-07T17:09:08.823Z,3.55
2022-08-07T17:12:04.679Z,3.08
2022-08-07T17:14:32.708Z,2.92
2022-08-07T17:17:03.588Z,4.00
2022-08-07T17:20:02.015Z,4.50
2022-08-07T17:22:37.701Z,4.93
2022-08-07T17:25:14.208Z,3.42
2022-08-07T17:27:59.071Z,2.95
2022-08-07T17:30:36.311Z,2.88
2022-08-07T17:34:09.529Z,2.95
2022-08-07T17:36:26.242Z,3.30
2022-08-07T17:39:10.667Z,3.70
2022-08-07T17:42:02.580Z,3.97
2022-08-07T17:44:45.317Z,2.65
2022-08-07T17:47:41.960Z,3.85
2022-08-07T17:50:16.738Z,4.50
2022-08-07T17:52:53.128Z,2.70
2022-08-07T17:56:01.146Z,4.03
2022-08-07T17:58:31.198Z,2.70
2022-08-07T18:01:03.649Z,3.10
2022-08-07T18:04:16.058Z,2.63
2022-08-07T18:07:19.403Z,2.60
2022-08-07T18:09:48.398Z,3.22
2022-08-07T18:12:42.672Z,4.65
2022-08-07T18:18:47.599Z,3.30
2022-08-07T18:21:06.350Z,3.17
2022-08-07T18:26:40.524Z,3.55
2022-08-07T18:30:05.336Z,4.10
2022-08-07T18:32:22.300Z,3.95
2022-08-07T18:38:56.457Z,3.50
2022-08-07T18:41:09.265Z,2.88
2022-08-07T18:43:49.984Z,2.90
2022-08-07T18:46:32.940Z,3.95
2022-08-07T18:50:19.415Z,4.70
2022-08-07T18:52:52.057Z,3.75
2022-08-07T18:55:42.070Z,4.63
2022-08-07T18:58:26.343Z,3.13
2022-08-07T19:01:06.711Z,3.17
2022-08-07T19:03:49.566Z,3.88
2022-08-07T19:06:33.848Z,3.40
2022-08-07T19:09:09.619Z,2.70
2022-08-07T19:12:11.880Z,5.75
2022-08-07T19:15:02.320Z,3.47
2022-08-07T19:18:03.296Z,3.22
2022-08-07T19:20:38.875Z,4.65
2022-08-07T19:23:59.111Z,2.90
2022-08-07T19:26:29.364Z,3.05
2022-08-07T19:30:55.365Z,3.45
2022-08-07T19:32:10.703Z,3.20
2022-08-07T19:34:47.811Z,5.15
2022-08-07T19:37:20.013Z,4.40
2022-08-07T19:40:03.716Z,3.33
2022-08-07T19:42:40.092Z,3.88
2022-08-07T19:46:06.282Z,5.88
2022-08-07T19:48:03.308Z,3.72
2022-08-07T19:50:43.940Z,4.03
2022-08-07T19:54:34.123Z,4.47
2022-08-07T19:56:15.088Z,4.38
2022-08-07T19:58:58.304Z,4.68
2022-08-07T20:01:56.247Z,5.47
2022-08-07T20:04:32.133Z,4.60
2022-08-07T20:07:09.368Z,3.53
2022-08-07T20:10:36.999Z,4.55
2022-08-07T20:15:09.679Z,5.78
2022-08-07T20:17:46.187Z,5.43
2022-08-07T20:20:30.579Z,4.60
2022-08-07T20:23:22.963Z,4.15
2022-08-07T20:25:53.346Z,3.90
2022-08-07T20:28:29.768Z,3.00
2022-08-07T20:30:59.595Z,5.22
2022-08-07T20:33:38.126Z,4.95
2022-08-07T20:36:07.682Z,4.78
2022-08-07T20:38:36.796Z,4.50
2022-08-07T20:41:27.130Z,3.78
2022-08-07T20:43:57.485Z,4.70
2022-08-07T20:46:32.213Z,5.10
2022-08-07T20:49:59.477Z,4.90
2022-08-07T20:51:53.311Z,4.30
2022-08-07T20:54:32.054Z,4.40
2022-08-07T20:57:04.255Z,4.53
2022-08-07T21:00:07.274Z,4.50
2022-08-07T21:02:54.306Z,4.03
2022-08-07T21:05:52.898Z,5.00
2022-08-07T21:08:37.146Z,5.28
2022-08-07T21:11:10.955Z,4.10
2022-08-07T21:13:43.858Z,5.18
2022-08-07T21:16:31.351Z,8.82
2022-08-07T21:19:00.740Z,4.43
2022-08-07T21:21:57.187Z,5.65
2022-08-07T21:24:28.378Z,4.93
2022-08-07T21:27:07.030Z,6.53
2022-08-07T21:29:52.874Z,5.20
2022-08-07T21:32:48.540Z,8.55
2022-08-07T21:35:34.692Z,4.85
2022-08-07T21:38:19.776Z,7.22
2022-08-07T21:41:05.792Z,5.22
2022-08-07T21:43:55.482Z,5.80
2022-08-07T21:46:31.679Z,6.25
2022-08-07T21:49:14.966Z,5.30
2022-08-07T21:51:55.617Z,8.73
2022-08-07T21:54:39.019Z,4.63
2022-08-07T21:57:39.257Z,6.40
2022-08-07T22:00:22.396Z,6.97
2022-08-07T22:02:57.933Z,5.57
2022-08-07T22:05:44.713Z,5.43
2022-08-07T22:08:18.855Z,5.82
2022-08-07T22:10:54.714Z,5.47
2022-08-07T22:13:52.352Z,4.72
2022-08-07T22:16:38.451Z,4.90
2022-08-07T22:19:12.915Z,5.63
2022-08-07T22:22:04.531Z,6.13
2022-08-07T22:24:37.435Z,5.55
2022-08-07T22:27:16.035Z,6.05
2022-08-07T22:29:50.266Z,5.97
2022-08-07T22:32:25.255Z,6.32
2022-08-07T22:34:56.288Z,5.25
2022-08-07T22:38:01.731Z,5.75
2022-08-07T22:40:29.298Z,5.00
2022-08-07T22:43:08.160Z,7.45
2022-08-07T22:46:21.118Z,5.40
2022-08-07T22:49:07.766Z,4.82
2022-08-07T22:51:57.400Z,4.60
2022-08-07T22:54:54.841Z,4.72
2022-08-07T22:57:43.214Z,6.22
2022-08-07T23:00:17.833Z,8.57
2022-08-07T23:02:57.994Z,5.45
2022-08-07T23:06:09.689Z,7.40
2022-08-07T23:08:51.615Z,6.32
2022-08-07T23:11:45.994Z,4.60
2022-08-07T23:14:31.698Z,6.00
2022-08-07T23:17:27.671Z,5.05
2022-08-07T23:20:51.281Z,5.85
2022-08-07T23:24:05.782Z,5.80
2022-08-07T23:26:25.154Z,4.95
2022-08-07T23:29:43.296Z,8.50
2022-08-07T23:34:23.454Z,6.60
2022-08-07T23:35:14.396Z,6.72
2022-08-07T23:38:01.846Z,4.85
2022-08-07T23:40:36.886Z,4.85
2022-08-07T23:43:52.683Z,7.68
2022-08-07T23:46:43.944Z,5.28
2022-08-07T23:49:53.156Z,5.63
2022-08-07T23:53:00.394Z,5.25
2022-08-07T23:55:53.267Z,5.25
2022-08-07T23:58:26.288Z,5.72
